Time;durP1;ratioP1;P1;durP2;ratioP2;P2;SDS_P1;SDS_P2;PMS_P1;PMS_P2;Temp;Humidity;BMP_temperature;BMP_pressure;BME280_temperature;BME280_humidity;BME280_pressure;Samples;Min_cycle;Max_cycle;Signal;HPM_P1;HPM_P2
2023/04/28 00:01:18;;;;;;;22.83;11.02;;;;;;;8.42;88.55;101163.28;5064541;28;20028;-68
2023/04/28 00:03:43;;;;;;;23.27;10.90;;;;;;;8.41;89.35;101158.91;5062492;28;20115;-70
2023/04/28 00:06:10;;;;;;;22.85;11.48;;;;;;;8.48;90.34;101163.47;5065825;28;20024;-74
2023/04/28 00:08:35;;;;;;;23.50;11.45;;;;;;;8.52;92.83;101162.66;5057964;28;20029;-72
2023/04/28 00:11:00;;;;;;;24.42;11.82;;;;;;;8.51;95.66;101161.75;5064762;28;20032;-77
2023/04/28 00:13:26;;;;;;;26.08;12.10;;;;;;;8.55;100.00;101157.44;5063307;28;20533;-70
2023/04/28 00:15:52;;;;;;;23.17;11.48;;;;;;;8.48;98.41;101153.78;5063546;28;20471;-69
2023/04/28 00:18:18;;;;;;;23.92;11.25;;;;;;;8.35;98.56;101146.50;5064321;28;20111;-77
2023/04/28 00:20:44;;;;;;;23.75;11.85;;;;;;;8.32;100.00;101134.16;5062448;28;20036;-74
2023/04/28 00:23:09;;;;;;;23.45;11.48;;;;;;;8.41;100.00;101143.09;5065163;28;20043;-71
2023/04/28 00:25:34;;;;;;;24.08;11.90;;;;;;;8.37;100.00;101132.50;5061848;28;20484;-68
2023/04/28 00:28:00;;;;;;;23.67;12.05;;;;;;;8.45;100.00;101135.31;5064510;28;20060;-71
2023/04/28 00:30:26;;;;;;;24.27;12.50;;;;;;;8.42;100.00;101139.56;5062908;28;20119;-71
2023/04/28 00:32:51;;;;;;;23.42;12.20;;;;;;;8.36;100.00;101136.00;5063262;28;20025;-75
2023/04/28 00:35:17;;;;;;;24.63;12.65;;;;;;;8.24;100.00;101122.59;5064059;28;20033;-75
2023/04/28 00:37:42;;;;;;;24.60;12.73;;;;;;;8.28;100.00;101111.25;5061846;28;20029;-78
2023/04/28 00:40:08;;;;;;;24.10;12.20;;;;;;;8.33;100.00;101103.41;5063959;28;20384;-77
2023/04/28 00:42:33;;;;;;;24.33;12.50;;;;;;;8.27;100.00;101101.59;5061553;28;20116;-69
2023/04/28 00:45:04;;;;;;;24.00;12.52;;;;;;;8.30;100.00;101104.28;5063753;28;20112;-70
2023/04/28 00:47:31;;;;;;;24.48;12.82;;;;;;;8.28;100.00;101108.59;5062263;28;20032;-74
2023/04/28 00:49:57;;;;;;;25.77;13.50;;;;;;;8.30;100.00;101098.09;5063444;28;20120;-75
2023/04/28 00:52:23;;;;;;;25.00;13.30;;;;;;;8.19;100.00;101100.56;5062963;28;20581;-75
2023/04/28 00:54:49;;;;;;;24.90;13.15;;;;;;;8.05;100.00;101091.50;5061299;28;20437;-71
2023/04/28 00:57:14;;;;;;;25.05;13.18;;;;;;;7.94;100.00;101078.16;5064086;28;20028;-70
2023/04/28 00:59:39;;;;;;;25.88;13.30;;;;;;;7.86;100.00;101085.88;5061023;28;20499;-72
2023/04/28 01:02:06;;;;;;;25.23;13.23;;;;;;;7.88;100.00;101078.94;5063477;28;20506;-74
2023/04/28 01:04:32;;;;;;;26.33;13.88;;;;;;;7.91;100.00;101086.88;5061512;28;20036;-72
2023/04/28 01:06:59;;;;;;;24.60;13.35;;;;;;;7.88;100.00;101084.19;5062476;28;20024;-72
2023/04/28 01:09:25;;;;;;;26.77;15.38;;;;;;;7.90;100.00;101084.22;5062643;28;20024;-72
2023/04/28 01:11:50;;;;;;;27.77;14.88;;;;;;;7.90;100.00;101074.56;5061119;28;20036;-70
2023/04/28 01:14:16;;;;;;;27.33;15.43;;;;;;;7.85;100.00;101085.00;5063524;28;20040;-72
2023/04/28 01:16:42;;;;;;;25.80;14.18;;;;;;;7.76;100.00;101073.41;5061061;28;20361;-79
2023/04/28 01:19:14;;;;;;;25.45;13.95;;;;;;;7.70;100.00;101073.31;5064334;28;20028;-73
2023/04/28 01:21:39;;;;;;;27.08;14.98;;;;;;;7.63;100.00;101052.13;5057237;28;20029;-69
2023/04/28 01:24:05;;;;;;;27.00;14.27;;;;;;;7.55;100.00;101042.31;5064224;28;20030;-69
2023/04/28 01:26:30;;;;;;;25.25;14.00;;;;;;;7.57;100.00;101040.59;5061358;28;20561;-77
2023/04/28 01:28:56;;;;;;;26.05;14.27;;;;;;;7.49;100.00;101050.97;5062708;28;20032;-71
2023/04/28 01:31:21;;;;;;;27.02;14.45;;;;;;;7.53;100.00;101046.63;5062863;28;20078;-73
2023/04/28 01:33:46;;;;;;;26.65;14.30;;;;;;;7.50;100.00;101045.72;5061317;28;20112;-79
2023/04/28 01:36:12;;;;;;;25.45;13.90;;;;;;;7.46;100.00;101048.28;5063986;28;20391;-79
2023/04/28 01:38:37;;;;;;;26.40;14.40;;;;;;;7.44;100.00;101044.72;5060756;28;20123;-80
2023/04/28 01:41:02;;;;;;;25.77;14.07;;;;;;;7.41;100.00;101039.38;5063482;28;20035;-70
2023/04/28 01:43:28;;;;;;;26.00;14.65;;;;;;;7.41;100.00;101042.03;5061823;28;20055;-74
2023/04/28 01:45:53;;;;;;;26.70;14.98;;;;;;;7.45;100.00;101035.97;5060830;28;20044;-72
2023/04/28 01:48:19;;;;;;;25.33;14.25;;;;;;;7.44;100.00;101034.19;5062957;28;20025;-76
2023/04/28 01:50:44;;;;;;;26.15;14.05;;;;;;;7.38;100.00;101037.56;5061252;28;20021;-79
2023/04/28 01:53:10;;;;;;;26.88;14.95;;;;;;;7.36;100.00;101031.41;5063977;28;20490;-78
2023/04/28 01:55:37;;;;;;;26.20;14.45;;;;;;;7.27;100.00;101031.22;5060512;28;20017;-79
2023/04/28 01:58:02;;;;;;;26.33;14.48;;;;;;;7.28;100.00;101023.38;5063459;28;20033;-72
2023/04/28 02:00:28;;;;;;;25.50;14.35;;;;;;;7.31;100.00;101026.06;5061883;28;20039;-78
2023/04/28 02:02:53;;;;;;;26.30;14.50;;;;;;;7.31;100.00;101022.53;5061949;28;20032;-80
2023/04/28 02:05:18;;;;;;;26.27;14.57;;;;;;;7.35;100.00;101023.50;5063041;28;20041;-68
2023/04/28 02:07:44;;;;;;;27.63;14.98;;;;;;;7.36;100.00;101020.91;5060611;28;20032;-73
2023/04/28 02:10:09;;;;;;;25.73;14.70;;;;;;;7.38;100.00;101028.81;5063843;28;20074;-74
2023/04/28 02:12:34;;;;;;;26.30;15.05;;;;;;;7.39;100.00;101031.47;5060724;28;20029;-69
2023/04/28 02:15:00;;;;;;;26.35;15.15;;;;;;;7.40;100.00;101032.38;5062730;28;20528;-71
2023/04/28 02:17:28;;;;;;;27.60;15.32;;;;;;;7.38;100.00;101018.28;5061647;28;20075;-69
2023/04/28 02:19:57;;;;;;;28.10;15.50;;;;;;;7.39;100.00;101017.44;5065985;28;20029;-70
2023/04/28 02:22:23;;;;;;;27.23;14.93;;;;;;;7.42;100.00;101007.84;5065992;28;20112;-73
2023/04/28 02:24:49;;;;;;;27.75;15.20;;;;;;;7.43;100.00;101007.00;5064962;28;20266;-76
2023/04/28 02:27:14;;;;;;;27.00;14.82;;;;;;;7.47;100.00;101003.59;5067128;28;20481;-74
2023/04/28 02:29:39;;;;;;;28.02;15.65;;;;;;;7.41;100.00;100997.31;5064026;28;20361;-70
2023/04/28 02:32:05;;;;;;;26.98;15.20;;;;;;;7.38;100.00;100992.00;5067198;28;20116;-69
2023/04/28 02:34:30;;;;;;;26.77;15.02;;;;;;;7.31;100.00;100981.34;5064789;28;20111;-76
2023/04/28 02:36:56;;;;;;;28.63;15.70;;;;;;;7.24;100.00;100965.44;5065796;28;20392;-69
2023/04/28 02:39:24;;;;;;;28.42;15.43;;;;;;;7.20;100.00;100956.59;5066023;28;20037;-73
2023/04/28 02:41:51;;;;;;;27.65;16.45;;;;;;;7.17;100.00;100945.13;5064898;28;20135;-69
2023/04/28 02:44:16;;;;;;;29.92;16.10;;;;;;;7.16;100.00;100944.22;5066513;28;20032;-70
2023/04/28 02:46:41;;;;;;;28.63;17.10;;;;;;;7.13;100.00;100938.91;5063675;28;20032;-70
2023/04/28 02:49:07;;;;;;;28.35;16.13;;;;;;;7.12;100.00;100929.25;5058378;28;20420;-69
2023/04/28 02:51:32;;;;;;;27.50;15.82;;;;;;;7.16;100.00;100925.81;5066387;28;20562;-69
2023/04/28 02:53:57;;;;;;;28.88;16.10;;;;;;;7.16;100.00;100925.81;5065026;28;20029;-70
2023/04/28 02:56:23;;;;;;;28.52;16.98;;;;;;;7.20;100.00;100938.19;5064851;28;20033;-70
2023/04/28 02:58:48;;;;;;;28.27;16.90;;;;;;;7.22;100.00;100941.72;5066011;28;20115;-70
2023/04/28 03:01:14;;;;;;;28.50;16.42;;;;;;;7.24;100.00;100947.03;5063702;28;20025;-70
2023/04/28 03:03:39;;;;;;;27.77;16.75;;;;;;;7.24;100.00;100942.66;5066754;28;20383;-69
2023/04/28 03:06:04;;;;;;;28.27;17.13;;;;;;;7.25;100.00;100933.91;5063702;28;20036;-69
2023/04/28 03:08:30;;;;;;;28.48;16.42;;;;;;;7.27;100.00;100937.44;5064623;28;20083;-70
2023/04/28 03:10:55;;;;;;;27.70;16.83;;;;;;;7.25;100.00;100939.16;5064820;28;20031;-70
2023/04/28 03:13:20;;;;;;;32.45;16.88;;;;;;;7.31;100.00;100941.91;5063037;28;20068;-70
2023/04/28 03:15:46;;;;;;;29.25;16.65;;;;;;;7.35;100.00;100934.06;5066084;28;20036;-69
2023/04/28 03:18:11;;;;;;;30.15;16.90;;;;;;;7.31;100.00;100928.75;5061618;28;20025;-70
2023/04/28 03:20:36;;;;;;;28.92;17.40;;;;;;;7.31;100.00;100927.84;5066929;28;20040;-70
2023/04/28 03:23:02;;;;;;;28.77;17.23;;;;;;;7.33;100.00;100932.28;5063832;28;20103;-70
2023/04/28 03:25:27;;;;;;;28.42;17.40;;;;;;;7.30;100.00;100940.13;5064906;28;20052;-70
2023/04/28 03:27:53;;;;;;;29.65;17.70;;;;;;;7.30;100.00;100942.75;5065109;28;20032;-69
2023/04/28 03:30:18;;;;;;;29.65;18.38;;;;;;;7.35;100.00;100939.34;5062742;28;20135;-69
2023/04/28 03:32:44;;;;;;;28.83;17.38;;;;;;;7.35;100.00;100941.97;5065888;28;20032;-69
2023/04/28 03:35:09;;;;;;;29.17;17.90;;;;;;;7.34;100.00;100935.84;5063424;28;20079;-71
2023/04/28 03:37:35;;;;;;;30.02;17.55;;;;;;;7.31;100.00;100936.66;5065854;28;20024;-70
2023/04/28 03:40:00;;;;;;;29.10;17.77;;;;;;;7.34;100.00;100933.19;5062266;28;20037;-71
2023/04/28 03:42:26;;;;;;;31.23;18.27;;;;;;;7.37;100.00;100928.00;5064538;28;20104;-69
2023/04/28 03:44:51;;;;;;;29.70;18.05;;;;;;;7.44;100.00;100924.63;5064751;28;20032;-69
2023/04/28 03:47:16;;;;;;;30.65;18.55;;;;;;;7.46;100.00;100927.28;5061958;28;20118;-70
2023/04/28 03:49:42;;;;;;;30.63;18.80;;;;;;;7.51;100.00;100928.22;5066542;28;20029;-70
2023/04/28 03:52:07;;;;;;;30.42;18.85;;;;;;;7.57;100.00;100924.84;5062708;28;20029;-71
2023/04/28 03:54:32;;;;;;;29.13;17.85;;;;;;;7.57;100.00;100924.84;5065367;28;20480;-71
2023/04/28 03:56:58;;;;;;;29.27;17.92;;;;;;;7.56;100.00;100912.53;5063601;28;20098;-69
2023/04/28 03:59:23;;;;;;;28.73;18.50;;;;;;;7.49;100.00;100908.91;5063793;28;20025;-70
2023/04/28 04:01:49;;;;;;;29.08;18.38;;;;;;;7.48;100.00;100907.13;5065059;28;20063;-70
2023/04/28 04:04:14;;;;;;;30.58;19.15;;;;;;;7.48;100.00;100907.13;5062253;28;20040;-70
2023/04/28 04:06:39;;;;;;;31.55;19.05;;;;;;;7.51;100.00;100907.19;5065721;28;20112;-70
2023/04/28 04:09:05;;;;;;;31.50;19.80;;;;;;;7.58;100.00;100911.69;5061294;28;20476;-69
2023/04/28 04:11:30;;;;;;;31.38;19.77;;;;;;;7.60;100.00;100907.38;5063219;28;20029;-70
2023/04/28 04:13:55;;;;;;;30.52;19.85;;;;;;;7.59;100.00;100900.31;5063655;28;20072;-70
2023/04/28 04:16:21;;;;;;;31.48;19.35;;;;;;;7.59;100.00;100907.34;5063264;28;20029;-70
2023/04/28 04:18:46;;;;;;;32.03;19.33;;;;;;;7.54;100.00;100907.25;5064835;28;20020;-69
2023/04/28 04:21:12;;;;;;;30.27;18.83;;;;;;;7.52;100.00;100910.72;5061645;28;20104;-70
2023/04/28 04:23:37;;;;;;;30.73;20.13;;;;;;;7.51;100.00;100909.81;5065635;28;20464;-69
2023/04/28 04:26:02;;;;;;;31.33;19.80;;;;;;;7.49;100.00;100917.69;5062281;28;20458;-79
2023/04/28 04:28:28;;;;;;;30.48;19.45;;;;;;;7.50;100.00;100908.06;5063912;28;20048;-75
2023/04/28 04:30:53;;;;;;;30.27;20.42;;;;;;;7.49;100.00;100907.16;5063636;28;20028;-79
2023/04/28 04:33:18;;;;;;;30.90;20.20;;;;;;;7.51;100.00;100909.81;5061041;28;20044;-74
2023/04/28 04:35:44;;;;;;;31.25;20.35;;;;;;;7.54;100.00;100915.13;5065173;28;20107;-77
2023/04/28 04:38:09;;;;;;;32.72;20.17;;;;;;;7.57;100.00;100909.94;5061585;28;20158;-76
2023/04/28 04:40:35;;;;;;;30.77;20.08;;;;;;;7.57;100.00;100890.63;5064356;28;20395;-76
2023/04/28 04:43:00;;;;;;;32.22;21.10;;;;;;;7.58;100.00;100881.88;5062448;28;20115;-72
2023/04/28 04:45:26;;;;;;;34.22;21.38;;;;;;;7.58;100.00;100869.59;5063167;28;20036;-69
2023/04/28 04:47:52;;;;;;;31.63;20.42;;;;;;;7.60;100.00;100873.16;5063629;28;20387;-77
2023/04/28 04:50:17;;;;;;;32.70;21.45;;;;;;;7.63;100.00;100869.69;5062093;28;20025;-74
2023/04/28 04:52:42;;;;;;;32.10;21.15;;;;;;;7.68;100.00;100868.03;5064516;28;20050;-76
2023/04/28 04:55:10;;;;;;;31.60;21.58;;;;;;;7.77;100.00;100872.56;5061273;28;20033;-76
2023/04/28 04:57:35;;;;;;;33.08;21.48;;;;;;;7.79;100.00;100865.56;5064355;28;20029;-72
2023/04/28 05:00:01;;;;;;;32.45;21.50;;;;;;;7.85;100.00;100873.56;5062039;28;20486;-77
2023/04/28 05:02:26;;;;;;;31.33;21.42;;;;;;;7.86;100.00;100859.53;5062900;28;20033;-73
2023/04/28 05:04:52;;;;;;;31.80;20.98;;;;;;;7.84;100.00;100862.13;5063422;28;20028;-72
2023/04/28 05:07:17;;;;;;;31.58;22.27;;;;;;;7.90;100.00;100866.63;5061713;28;20033;-72
2023/04/28 05:09:42;;;;;;;31.83;21.45;;;;;;;7.96;100.00;100866.69;5064637;28;20027;-69
2023/04/28 05:12:08;;;;;;;31.90;21.05;;;;;;;8.05;100.00;100859.81;5061236;28;20490;-69
2023/04/28 05:14:34;;;;;;;33.47;21.90;;;;;;;8.18;100.00;100862.66;5063625;28;20024;-70
2023/04/28 05:16:59;;;;;;;32.78;20.92;;;;;;;8.22;100.00;100863.59;5062331;28;20082;-70
2023/04/28 05:19:24;;;;;;;32.33;21.65;;;;;;;8.27;100.00;100867.19;5062483;28;20025;-70
2023/04/28 05:21:52;;;;;;;31.85;21.08;;;;;;;8.29;100.00;100857.53;5063318;28;20540;-70
2023/04/28 05:24:23;;;;;;;31.50;21.42;;;;;;;8.30;100.00;100861.94;5061478;28;20388;-70
2023/04/28 05:26:50;;;;;;;31.13;20.90;;;;;;;8.30;100.00;100867.22;5063410;28;20044;-70
2023/04/28 05:29:15;;;;;;;29.98;20.95;;;;;;;8.32;100.00;100861.97;5060937;28;20017;-69
2023/04/28 05:31:41;;;;;;;32.33;21.35;;;;;;;8.35;100.00;100862.88;5064497;28;20379;-69
2023/04/28 05:34:06;;;;;;;29.95;20.52;;;;;;;8.43;100.00;100870.00;5060948;28;20040;-69
2023/04/28 05:36:32;;;;;;;30.63;20.95;;;;;;;8.50;100.00;100870.16;5063160;28;20037;-69
2023/04/28 05:38:57;;;;;;;31.23;20.92;;;;;;;8.54;100.00;100868.44;5062174;28;20028;-69
2023/04/28 05:41:22;;;;;;;31.85;22.05;;;;;;;8.55;100.00;100878.13;5061881;28;20037;-70
2023/04/28 05:43:49;;;;;;;29.98;21.35;;;;;;;8.60;100.00;100868.50;5063351;28;20047;-69
2023/04/28 05:46:16;;;;;;;31.92;21.25;;;;;;;8.67;100.00;100867.72;5059649;28;20033;-70
2023/04/28 05:48:41;;;;;;;30.40;20.67;;;;;;;8.76;100.00;100871.34;5054582;28;20079;-71
2023/04/28 05:51:06;;;;;;;31.90;20.88;;;;;;;8.88;100.00;100876.75;5053387;28;20443;-71
2023/04/28 05:53:32;;;;;;;28.75;19.58;;;;;;;8.95;100.00;100868.06;5064146;28;20044;-71
2023/04/28 05:55:57;;;;;;;30.67;19.88;;;;;;;9.03;100.00;100866.41;5067147;28;20067;-71
2023/04/28 05:58:23;;;;;;;32.33;20.35;;;;;;;9.07;100.00;100855.03;5067025;28;20029;-70
2023/04/28 06:00:48;;;;;;;28.77;19.60;;;;;;;9.14;100.00;100863.88;5067379;28;20116;-70
2023/04/28 06:03:17;;;;;;;30.20;19.33;;;;;;;9.23;100.00;100857.78;5065903;28;20044;-71
2023/04/28 06:05:43;;;;;;;29.63;19.58;;;;;;;9.29;100.00;100852.59;5067062;28;20443;-70
2023/04/28 06:08:08;;;;;;;29.67;19.45;;;;;;;9.32;100.00;100850.00;5067532;28;20064;-71
2023/04/28 06:10:33;;;;;;;29.08;19.17;;;;;;;9.36;100.00;100858.81;5067862;28;20033;-71
2023/04/28 06:12:59;;;;;;;29.40;19.08;;;;;;;9.50;100.00;100856.31;5065659;28;20116;-71
2023/04/28 06:15:24;;;;;;;28.25;18.33;;;;;;;9.67;100.00;100854.69;5062412;28;20021;-70
2023/04/28 06:17:50;;;;;;;29.73;19.02;;;;;;;9.72;100.00;100847.69;5064318;28;20043;-71
2023/04/28 06:20:15;;;;;;;29.30;18.35;;;;;;;9.75;100.00;100847.72;5065928;28;20029;-70
2023/04/28 06:22:41;;;;;;;29.98;20.05;;;;;;;9.74;100.00;100860.91;5066274;28;20513;-72
2023/04/28 06:25:07;;;;;;;29.00;19.65;;;;;;;9.65;100.00;100852.91;5063971;28;20082;-71
2023/04/28 06:27:33;;;;;;;29.25;19.48;;;;;;;9.70;100.00;100854.72;5066131;28;20104;-71
2023/04/28 06:29:58;;;;;;;30.13;20.33;;;;;;;9.88;100.00;100858.38;5063528;28;20040;-72
2023/04/28 06:32:24;;;;;;;28.60;19.20;;;;;;;10.04;100.00;100857.59;5066943;28;20035;-71
2023/04/28 06:34:49;;;;;;;29.08;19.10;;;;;;;10.04;100.00;100854.09;5068623;28;20474;-72
2023/04/28 06:37:15;;;;;;;29.88;18.90;;;;;;;10.07;100.00;100854.97;5066541;28;20036;-70
2023/04/28 06:39:40;;;;;;;29.38;19.13;;;;;;;10.11;100.00;100851.50;5065637;28;20040;-70
2023/04/28 06:42:06;;;;;;;28.58;18.73;;;;;;;10.15;100.00;100851.50;5065278;28;20074;-71
2023/04/28 06:44:31;;;;;;;30.38;18.90;;;;;;;10.16;100.00;100854.16;5069512;28;20116;-72
2023/04/28 06:46:56;;;;;;;29.00;18.10;;;;;;;10.17;100.00;100853.28;5067229;28;20215;-70
2023/04/28 06:49:22;;;;;;;27.52;17.55;;;;;;;10.21;100.00;100848.94;5066820;28;20031;-71
2023/04/28 06:51:47;;;;;;;28.17;17.35;;;;;;;10.24;100.00;100851.59;5064131;28;20040;-71
2023/04/28 06:54:13;;;;;;;28.52;17.92;;;;;;;10.23;100.00;100850.69;5061737;28;20021;-71
2023/04/28 06:56:38;;;;;;;26.75;17.50;;;;;;;10.33;100.00;100840.19;5063913;28;20479;-71
2023/04/28 06:59:03;;;;;;;28.27;17.80;;;;;;;10.40;100.00;100836.72;5064514;28;20060;-72
2023/04/28 07:01:29;;;;;;;27.17;17.23;;;;;;;10.45;100.00;100841.13;5064545;28;20381;-72
2023/04/28 07:03:54;;;;;;;28.48;17.17;;;;;;;10.42;100.00;100834.97;5068470;28;20039;-70
2023/04/28 07:06:20;;;;;;;27.67;17.40;;;;;;;10.37;100.00;100834.03;5063162;28;20516;-73
2023/04/28 07:08:45;;;;;;;28.23;17.25;;;;;;;10.46;100.00;100837.63;5065815;28;20029;-72
2023/04/28 07:11:10;;;;;;;28.35;17.50;;;;;;;10.58;100.00;100839.44;5065734;28;20539;-71
2023/04/28 07:13:36;;;;;;;26.50;17.02;;;;;;;10.75;100.00;100844.81;5063882;28;20091;-70
2023/04/28 07:16:03;;;;;;;28.17;17.65;;;;;;;10.96;100.00;100833.38;5060242;28;20056;-71
2023/04/28 07:18:29;;;;;;;28.02;17.10;;;;;;;11.15;100.00;100834.34;5068561;28;20064;-73
2023/04/28 07:20:54;;;;;;;27.27;16.50;;;;;;;11.20;100.00;100841.38;5063687;28;20455;-71
2023/04/28 07:23:19;;;;;;;26.50;16.83;;;;;;;11.12;100.00;100833.44;5067339;28;20455;-71
2023/04/28 07:25:45;;;;;;;25.67;16.30;;;;;;;11.13;100.00;100836.09;5063256;28;20059;-70
2023/04/28 07:28:12;;;;;;;28.45;17.25;;;;;;;11.09;100.00;100833.44;5068389;28;20028;-70
2023/04/28 07:30:38;;;;;;;26.73;16.88;;;;;;;11.05;100.00;100836.94;5053894;28;20071;-71
2023/04/28 07:33:03;;;;;;;27.88;17.38;;;;;;;11.11;100.00;100840.50;5040989;28;20059;-73
2023/04/28 07:35:29;;;;;;;26.88;16.92;;;;;;;11.24;100.00;100845.81;5057373;28;20033;-73
2023/04/28 07:37:54;;;;;;;26.55;16.67;;;;;;;11.29;100.00;100842.28;5061826;28;20021;-69
2023/04/28 07:40:20;;;;;;;26.42;16.58;;;;;;;11.33;100.00;100848.47;5066633;28;20032;-70
2023/04/28 07:42:46;;;;;;;26.50;16.90;;;;;;;11.28;100.00;100853.75;5065038;28;20552;-72
2023/04/28 07:45:13;;;;;;;26.20;17.23;;;;;;;11.23;100.00;100858.16;5062382;28;20056;-72
2023/04/28 07:47:38;;;;;;;27.02;17.35;;;;;;;11.27;100.00;100859.03;5065096;28;20445;-72
2023/04/28 07:50:05;;;;;;;26.75;17.55;;;;;;;11.17;100.00;100850.22;5064976;28;20033;-72
2023/04/28 07:52:34;;;;;;;27.90;18.25;;;;;;;11.04;100.00;100861.63;5065678;28;20032;-69
2023/04/28 07:55:01;;;;;;;27.52;18.10;;;;;;;10.95;100.00;100851.91;5065643;28;20147;-72
2023/04/28 07:57:28;;;;;;;28.20;19.20;;;;;;;10.84;100.00;100856.28;5062764;28;20109;-72
2023/04/28 07:59:53;;;;;;;28.55;18.98;;;;;;;10.74;100.00;100856.25;5065660;28;20456;-70
2023/04/28 08:02:19;;;;;;;29.35;19.65;;;;;;;10.69;100.00;100858.00;5064391;28;20123;-69
2023/04/28 08:04:45;;;;;;;28.83;20.35;;;;;;;10.70;100.00;100849.16;5058416;28;20033;-71
2023/04/28 08:07:10;;;;;;;30.70;21.02;;;;;;;10.76;100.00;100862.44;5068269;28;20048;-70
2023/04/28 08:09:35;;;;;;;30.35;21.13;;;;;;;10.76;100.00;100867.72;5062970;28;20033;-72
2023/04/28 08:12:01;;;;;;;31.02;22.33;;;;;;;10.76;100.00;100859.78;5065634;28;20029;-74
2023/04/28 08:14:27;;;;;;;32.03;22.92;;;;;;;10.84;100.00;100862.47;5061923;28;20024;-72
2023/04/28 08:16:53;;;;;;;32.97;24.38;;;;;;;10.96;100.00;100866.91;5064526;28;20475;-72
2023/04/28 08:19:19;;;;;;;34.60;24.95;;;;;;;10.93;100.00;100859.84;5063254;28;20064;-71
2023/04/28 08:21:44;;;;;;;33.30;24.92;;;;;;;10.97;100.00;100866.03;5062907;28;20067;-77
2023/04/28 08:24:10;;;;;;;32.88;24.42;;;;;;;10.94;100.00;100861.59;5063958;28;20103;-73
2023/04/28 08:26:36;;;;;;;33.65;25.83;;;;;;;10.96;100.00;100873.06;5062523;28;20036;-72
2023/04/28 08:29:02;;;;;;;32.03;24.25;;;;;;;10.93;100.00;100872.19;5064997;28;20048;-75
2023/04/28 08:31:27;;;;;;;33.42;25.65;;;;;;;10.95;100.00;100873.97;5061737;28;20071;-76
2023/04/28 08:33:53;;;;;;;34.28;26.13;;;;;;;11.03;100.00;100884.56;5065488;28;20444;-77
2023/04/28 08:36:18;;;;;;;35.38;26.38;;;;;;;11.04;100.00;100878.41;5062811;28;20041;-75
2023/04/28 08:38:44;;;;;;;34.28;26.13;;;;;;;11.06;100.00;100884.56;5063660;28;20032;-73
2023/04/28 08:41:14;;;;;;;34.55;25.85;;;;;;;11.03;100.00;100881.91;5063782;28;20094;-76
2023/04/28 08:43:42;;;;;;;36.13;27.15;;;;;;;11.17;100.00;100874.03;5062682;28;20029;-75
2023/04/28 08:46:08;;;;;;;34.40;26.50;;;;;;;11.16;100.00;100883.72;5063993;28;20587;-74
2023/04/28 08:48:43;;;;;;;34.78;26.10;;;;;;;11.15;100.00;100887.25;5062109;28;20033;-76
2023/04/28 08:51:15;;;;;;;34.38;25.92;;;;;;;11.21;100.00;100891.66;5063619;28;20028;-75
2023/04/28 08:53:43;;;;;;;34.67;25.98;;;;;;;11.29;100.00;100881.09;5062641;28;20021;-74
2023/04/28 08:56:12;;;;;;;34.08;26.67;;;;;;;11.41;100.00;100889.06;5063656;28;20116;-74
2023/04/28 08:58:38;;;;;;;34.47;25.60;;;;;;;11.45;100.00;100885.53;5062380;28;20491;-75
2023/04/28 09:01:04;;;;;;;34.55;25.35;;;;;;;11.55;100.00;100885.53;5064005;28;20032;-73
2023/04/28 09:03:31;;;;;;;33.42;24.63;;;;;;;11.53;100.00;100890.81;5061402;28;20029;-72
2023/04/28 09:05:57;;;;;;;32.85;23.60;;;;;;;11.49;100.00;100887.31;5057445;28;20029;-73
2023/04/28 09:08:22;;;;;;;33.28;24.60;;;;;;;11.57;100.00;100886.44;5064104;28;20032;-75
2023/04/28 09:11:05;;;;;;;31.20;23.35;;;;;;;11.62;100.00;100880.28;5062280;28;20047;-71
2023/04/28 09:13:32;;;;;;;31.90;23.77;;;;;;;11.68;100.00;100877.63;5057790;28;20029;-72
2023/04/28 09:16:02;;;;;;;32.08;23.48;;;;;;;11.69;100.00;100878.50;5064326;28;20040;-73
2023/04/28 09:18:32;;;;;;;32.10;23.27;;;;;;;11.65;100.00;100880.25;5057118;28;20103;-70
2023/04/28 09:21:08;;;;;;;33.50;24.35;;;;;;;11.71;100.00;100870.53;5056980;28;20036;-73
2023/04/28 09:23:46;;;;;;;33.15;24.35;;;;;;;11.83;100.00;100882.03;5058414;28;20036;-74
2023/04/28 09:26:11;;;;;;;33.65;24.38;;;;;;;11.77;100.00;100876.72;5062736;28;20048;-73
2023/04/28 09:28:37;;;;;;;33.42;24.02;;;;;;;11.91;100.00;100876.75;5060967;28;20498;-71
2023/04/28 09:31:03;;;;;;;34.28;24.45;;;;;;;12.04;100.00;100869.69;5062869;28;20051;-72
2023/04/28 09:33:29;;;;;;;33.65;24.67;;;;;;;12.27;100.00;100876.72;5061002;28;20036;-70
2023/04/28 09:35:54;;;;;;;33.83;24.45;;;;;;;12.37;100.00;100881.97;5064039;28;20385;-74
2023/04/28 09:38:21;;;;;;;32.10;22.13;;;;;;;12.34;100.00;100879.34;5060701;28;20506;-79
2023/04/28 09:40:54;;;;;;;32.03;23.30;;;;;;;12.30;100.00;100876.72;5060920;28;20025;-79
2023/04/28 09:43:31;;;;;;;32.28;22.67;;;;;;;12.28;100.00;100878.50;5063335;28;20032;-73
2023/04/28 09:45:59;;;;;;;32.40;23.55;;;;;;;12.45;100.00;100878.44;5057009;28;20024;-75
2023/04/28 09:48:37;;;;;;;31.77;22.55;;;;;;;12.50;100.00;100881.97;5064008;28;20020;-73
2023/04/28 09:51:05;;;;;;;32.28;23.17;;;;;;;12.47;100.00;100882.84;5059350;28;20380;-79
2023/04/28 09:53:31;;;;;;;32.67;23.40;;;;;;;12.34;100.00;100883.78;5063230;28;20038;-79
2023/04/28 09:55:58;;;;;;;33.75;24.05;;;;;;;12.23;100.00;100885.56;5060700;28;20025;-79
2023/04/28 09:58:25;;;;;;;35.10;25.48;;;;;;;12.15;100.00;100890.88;5064203;28;20024;-78
2023/04/28 10:00:58;;;;;;;35.35;25.55;;;;;;;12.07;100.00;100893.50;5060733;28;20067;-75
2023/04/28 10:03:26;;;;;;;36.45;26.40;;;;;;;12.05;100.00;100894.44;5056120;28;20029;-75
2023/04/28 10:05:52;;;;;;;38.47;28.42;;;;;;;11.99;100.00;100897.97;5063940;28;20379;-78
2023/04/28 10:08:20;;;;;;;40.50;29.85;;;;;;;11.95;100.00;100904.13;5060911;28;20052;-79
2023/04/28 10:10:51;;;;;;;41.50;31.67;;;;;;;11.96;100.00;100898.84;5062147;28;20443;-76
2023/04/28 10:13:18;;;;;;;46.80;34.85;;;;;;;12.08;100.00;100895.28;5064131;28;20029;-79
2023/04/28 10:15:44;;;;;;;46.55;35.05;;;;;;;12.17;100.00;100903.25;5059960;28;20082;-73
2023/04/28 10:18:13;;;;;;;50.22;37.58;;;;;;;12.23;100.00;100896.16;5062336;28;20475;-74
2023/04/28 10:20:41;;;;;;;51.45;38.45;;;;;;;12.36;100.00;100888.19;5060206;28;20036;-79
2023/04/28 10:23:46;;;;;;;53.85;40.92;;;;;;;12.59;100.00;100886.34;5064172;28;20097;-78
2023/04/28 10:26:18;;;;;;;52.08;39.20;;;;;;;12.69;100.00;100890.75;5056412;28;20045;-76
2023/04/28 10:28:49;;;;;;;50.53;38.45;;;;;;;12.68;100.00;100892.53;5058481;28;20037;-73
2023/04/28 10:31:17;;;;;;;51.88;39.17;;;;;;;12.66;100.00;100888.09;5063123;28;20107;-76
2023/04/28 10:33:43;;;;;;;48.40;38.20;;;;;;;12.68;100.00;100879.25;5061449;28;20108;-74
2023/04/28 10:36:09;;;;;;;49.10;37.97;;;;;;;12.69;100.00;100882.78;5063346;28;20067;-78
2023/04/28 10:38:35;;;;;;;47.17;37.30;;;;;;;12.75;100.00;100874.78;5064622;28;20033;-76
2023/04/28 10:41:04;;;;;;;43.58;34.72;;;;;;;12.80;100.00;100878.31;5064143;28;20029;-75
2023/04/28 10:43:30;;;;;;;43.63;35.55;;;;;;;12.84;100.00;100872.13;5060805;28;20047;-76
2023/04/28 10:45:57;;;;;;;43.47;33.80;;;;;;;13.03;100.00;100869.34;5064153;28;20052;-72
2023/04/28 10:48:45;;;;;;;42.78;34.03;;;;;;;13.26;100.00;100863.91;5061101;28;20058;-75
2023/04/28 10:51:13;;;;;;;40.63;32.95;;;;;;;13.31;100.00;100867.44;5065031;28;20155;-77
2023/04/28 10:53:45;;;;;;;41.80;32.65;;;;;;;13.49;100.00;100853.16;5064930;28;20488;-71
2023/04/28 10:56:17;;;;;;;38.38;31.02;;;;;;;13.60;100.00;100861.94;5066835;28;20029;-76
2023/04/28 10:58:54;;;;;;;38.25;30.52;;;;;;;13.65;100.00;100853.94;5063884;28;20037;-75
2023/04/28 11:01:25;;;;;;;36.58;30.13;;;;;;;13.73;100.00;100857.41;5061382;28;20444;-76
2023/04/28 11:03:59;;;;;;;35.22;29.23;;;;;;;13.83;100.00;100850.22;5069809;28;20078;-75